sensor_id;sensor_type;location;lat;lon;timestamp;temperature;humidity
60701;DHT22;46541;49.894;10.886;2024-03-08T00:00:35;4.90;99.90
60701;DHT22;46541;49.894;10.886;2024-03-08T00:03:02;4.80;99.90
60701;DHT22;46541;49.894;10.886;2024-03-08T00:05:29;4.80;99.90
60701;DHT22;46541;49.894;10.886;2024-03-08T00:07:57;4.80;99.90
60701;DHT22;46541;49.894;10.886;2024-03-08T00:10:23;4.80;99.90
60701;DHT22;46541;49.894;10.886;2024-03-08T00:12:53;4.80;99.90
60701;DHT22;46541;49.894;10.886;2024-03-08T00:15:21;4.80;99.90
60701;DHT22;46541;49.894;10.886;2024-03-08T00:17:49;4.80;99.90
60701;DHT22;46541;49.894;10.886;2024-03-08T00:20:17;4.80;99.90
60701;DHT22;46541;49.894;10.886;2024-03-08T00:22:46;4.80;99.90
60701;DHT22;46541;49.894;10.886;2024-03-08T00:25:13;4.80;99.90
60701;DHT22;46541;49.894;10.886;2024-03-08T00:27:41;4.80;99.90
60701;DHT22;46541;49.894;10.886;2024-03-08T00:30:08;4.70;99.90
60701;DHT22;46541;49.894;10.886;2024-03-08T00:32:35;4.70;99.90
60701;DHT22;46541;49.894;10.886;2024-03-08T00:35:04;4.70;99.90
60701;DHT22;46541;49.894;10.886;2024-03-08T00:37:33;4.70;99.90
60701;DHT22;46541;49.894;10.886;2024-03-08T00:40:03;4.70;99.90
60701;DHT22;46541;49.894;10.886;2024-03-08T00:42:31;4.70;99.90
60701;DHT22;46541;49.894;10.886;2024-03-08T00:44:58;4.70;99.90
60701;DHT22;46541;49.894;10.886;2024-03-08T00:47:25;4.70;99.90
60701;DHT22;46541;49.894;10.886;2024-03-08T00:49:53;4.70;99.90
60701;DHT22;46541;49.894;10.886;2024-03-08T00:52:23;4.80;99.90
60701;DHT22;46541;49.894;10.886;2024-03-08T00:54:52;4.70;99.90
60701;DHT22;46541;49.894;10.886;2024-03-08T00:57:19;4.70;99.90
60701;DHT22;46541;49.894;10.886;2024-03-08T00:59:47;4.70;99.90
60701;DHT22;46541;49.894;10.886;2024-03-08T01:02:14;4.70;99.90
60701;DHT22;46541;49.894;10.886;2024-03-08T01:04:43;4.70;99.90
60701;DHT22;46541;49.894;10.886;2024-03-08T01:07:10;4.60;99.90
60701;DHT22;46541;49.894;10.886;2024-03-08T01:09:37;4.60;99.90
60701;DHT22;46541;49.894;10.886;2024-03-08T01:12:04;4.60;99.90
60701;DHT22;46541;49.894;10.886;2024-03-08T01:14:33;4.60;99.90
60701;DHT22;46541;49.894;10.886;2024-03-08T01:17:00;4.50;99.90
60701;DHT22;46541;49.894;10.886;2024-03-08T01:19:27;4.50;99.90
60701;DHT22;46541;49.894;10.886;2024-03-08T01:21:54;4.50;99.90
60701;DHT22;46541;49.894;10.886;2024-03-08T01:24:23;4.50;99.90
60701;DHT22;46541;49.894;10.886;2024-03-08T01:26:50;4.50;99.90
60701;DHT22;46541;49.894;10.886;2024-03-08T01:29:17;4.50;99.90
60701;DHT22;46541;49.894;10.886;2024-03-08T01:31:43;4.50;99.90
60701;DHT22;46541;49.894;10.886;2024-03-08T01:34:10;4.50;99.90
60701;DHT22;46541;49.894;10.886;2024-03-08T01:36:37;4.50;99.90
60701;DHT22;46541;49.894;10.886;2024-03-08T01:39:04;4.50;99.90
60701;DHT22;46541;49.894;10.886;2024-03-08T01:41:34;4.40;99.90
60701;DHT22;46541;49.894;10.886;2024-03-08T01:44:03;4.40;99.90
60701;DHT22;46541;49.894;10.886;2024-03-08T01:46:30;4.40;99.90
60701;DHT22;46541;49.894;10.886;2024-03-08T01:48:57;4.40;99.90
60701;DHT22;46541;49.894;10.886;2024-03-08T01:51:25;4.40;99.90
60701;DHT22;46541;49.894;10.886;2024-03-08T01:53:51;4.40;99.90
60701;DHT22;46541;49.894;10.886;2024-03-08T01:56:19;4.30;99.90
60701;DHT22;46541;49.894;10.886;2024-03-08T01:58:47;4.40;99.90
60701;DHT22;46541;49.894;10.886;2024-03-08T02:01:14;4.30;99.90
60701;DHT22;46541;49.894;10.886;2024-03-08T02:03:42;4.30;99.90
60701;DHT22;46541;49.894;10.886;2024-03-08T02:06:14;4.30;99.90
60701;DHT22;46541;49.894;10.886;2024-03-08T02:08:43;4.30;99.90
60701;DHT22;46541;49.894;10.886;2024-03-08T02:11:11;4.30;99.90
60701;DHT22;46541;49.894;10.886;2024-03-08T02:13:38;4.30;99.90
60701;DHT22;46541;49.894;10.886;2024-03-08T02:16:05;4.30;99.90
60701;DHT22;46541;49.894;10.886;2024-03-08T02:18:35;4.30;99.90
60701;DHT22;46541;49.894;10.886;2024-03-08T02:21:03;4.30;99.90
60701;DHT22;46541;49.894;10.886;2024-03-08T02:23:32;4.30;99.90
60701;DHT22;46541;49.894;10.886;2024-03-08T02:26:00;4.30;99.90
60701;DHT22;46541;49.894;10.886;2024-03-08T02:28:27;4.20;99.90
60701;DHT22;46541;49.894;10.886;2024-03-08T02:30:54;4.10;99.90
60701;DHT22;46541;49.894;10.886;2024-03-08T02:33:23;4.20;99.90
60701;DHT22;46541;49.894;10.886;2024-03-08T02:35:50;4.20;99.90
60701;DHT22;46541;49.894;10.886;2024-03-08T02:38:20;4.10;99.90
60701;DHT22;46541;49.894;10.886;2024-03-08T02:40:48;4.10;99.90
60701;DHT22;46541;49.894;10.886;2024-03-08T02:43:16;4.20;99.90
60701;DHT22;46541;49.894;10.886;2024-03-08T02:45:46;4.20;99.90
60701;DHT22;46541;49.894;10.886;2024-03-08T02:48:14;4.10;99.90
60701;DHT22;46541;49.894;10.886;2024-03-08T02:50:41;4.10;99.90
60701;DHT22;46541;49.894;10.886;2024-03-08T02:53:13;4.10;99.90
60701;DHT22;46541;49.894;10.886;2024-03-08T02:55:40;4.10;99.90
60701;DHT22;46541;49.894;10.886;2024-03-08T02:58:08;4.20;99.90
60701;DHT22;46541;49.894;10.886;2024-03-08T03:00:37;4.10;99.90
60701;DHT22;46541;49.894;10.886;2024-03-08T03:03:06;4.10;99.90
60701;DHT22;46541;49.894;10.886;2024-03-08T03:05:33;4.10;99.90
60701;DHT22;46541;49.894;10.886;2024-03-08T03:08:00;4.10;99.90
60701;DHT22;46541;49.894;10.886;2024-03-08T03:10:27;4.10;99.90
60701;DHT22;46541;49.894;10.886;2024-03-08T03:12:54;4.10;99.90
60701;DHT22;46541;49.894;10.886;2024-03-08T03:15:20;4.10;99.90
60701;DHT22;46541;49.894;10.886;2024-03-08T03:17:48;4.10;99.90
60701;DHT22;46541;49.894;10.886;2024-03-08T03:20:18;4.00;99.90
60701;DHT22;46541;49.894;10.886;2024-03-08T03:22:53;4.00;99.90
60701;DHT22;46541;49.894;10.886;2024-03-08T03:25:21;4.00;99.90
60701;DHT22;46541;49.894;10.886;2024-03-08T03:27:52;3.90;99.90
60701;DHT22;46541;49.894;10.886;2024-03-08T03:30:24;3.90;99.90
60701;DHT22;46541;49.894;10.886;2024-03-08T03:32:53;3.80;99.90
60701;DHT22;46541;49.894;10.886;2024-03-08T03:35:22;3.80;99.90
60701;DHT22;46541;49.894;10.886;2024-03-08T03:37:49;3.80;99.90
60701;DHT22;46541;49.894;10.886;2024-03-08T03:40:39;3.80;99.90
60701;DHT22;46541;49.894;10.886;2024-03-08T03:43:06;3.70;99.90
60701;DHT22;46541;49.894;10.886;2024-03-08T03:45:34;3.60;99.90
60701;DHT22;46541;49.894;10.886;2024-03-08T03:48:04;3.60;99.90
60701;DHT22;46541;49.894;10.886;2024-03-08T03:50:33;3.60;99.90
60701;DHT22;46541;49.894;10.886;2024-03-08T03:53:04;3.50;99.90
60701;DHT22;46541;49.894;10.886;2024-03-08T03:55:31;3.50;99.90
60701;DHT22;46541;49.894;10.886;2024-03-08T03:57:57;3.50;99.90
60701;DHT22;46541;49.894;10.886;2024-03-08T04:00:26;3.50;99.90
60701;DHT22;46541;49.894;10.886;2024-03-08T04:02:54;3.50;99.90
60701;DHT22;46541;49.894;10.886;2024-03-08T04:05:21;3.60;99.90
60701;DHT22;46541;49.894;10.886;2024-03-08T04:07:48;3.60;99.90
60701;DHT22;46541;49.894;10.886;2024-03-08T04:10:15;3.60;99.90
60701;DHT22;46541;49.894;10.886;2024-03-08T04:12:42;3.70;99.90
60701;DHT22;46541;49.894;10.886;2024-03-08T04:15:09;3.70;99.90
60701;DHT22;46541;49.894;10.886;2024-03-08T04:17:38;3.80;99.90
60701;DHT22;46541;49.894;10.886;2024-03-08T04:20:05;3.80;99.90
60701;DHT22;46541;49.894;10.886;2024-03-08T04:22:42;3.80;99.90
60701;DHT22;46541;49.894;10.886;2024-03-08T04:25:11;3.80;99.90
60701;DHT22;46541;49.894;10.886;2024-03-08T04:27:38;3.80;99.90
60701;DHT22;46541;49.894;10.886;2024-03-08T04:30:05;3.80;99.90
60701;DHT22;46541;49.894;10.886;2024-03-08T04:32:34;3.80;99.90
60701;DHT22;46541;49.894;10.886;2024-03-08T04:35:01;3.80;99.90
60701;DHT22;46541;49.894;10.886;2024-03-08T04:37:30;3.80;99.90
60701;DHT22;46541;49.894;10.886;2024-03-08T04:39:57;3.80;99.90
60701;DHT22;46541;49.894;10.886;2024-03-08T04:42:24;3.80;99.90
60701;DHT22;46541;49.894;10.886;2024-03-08T04:44:51;3.80;99.90
60701;DHT22;46541;49.894;10.886;2024-03-08T04:47:20;3.80;99.90
60701;DHT22;46541;49.894;10.886;2024-03-08T04:49:47;3.70;99.90
60701;DHT22;46541;49.894;10.886;2024-03-08T04:52:13;3.70;99.90
60701;DHT22;46541;49.894;10.886;2024-03-08T04:54:40;3.70;99.90
60701;DHT22;46541;49.894;10.886;2024-03-08T04:57:07;3.80;99.90
60701;DHT22;46541;49.894;10.886;2024-03-08T04:59:35;3.80;99.90
60701;DHT22;46541;49.894;10.886;2024-03-08T05:02:03;3.70;99.90
60701;DHT22;46541;49.894;10.886;2024-03-08T05:04:30;3.80;99.90
60701;DHT22;46541;49.894;10.886;2024-03-08T05:06:56;3.80;99.90
60701;DHT22;46541;49.894;10.886;2024-03-08T05:09:24;3.80;99.90
60701;DHT22;46541;49.894;10.886;2024-03-08T05:11:50;3.80;99.90
60701;DHT22;46541;49.894;10.886;2024-03-08T05:14:17;3.70;99.90
60701;DHT22;46541;49.894;10.886;2024-03-08T05:16:47;3.70;99.90
60701;DHT22;46541;49.894;10.886;2024-03-08T05:19:17;3.70;99.90
60701;DHT22;46541;49.894;10.886;2024-03-08T05:21:44;3.70;99.90
60701;DHT22;46541;49.894;10.886;2024-03-08T05:24:12;3.70;99.90
60701;DHT22;46541;49.894;10.886;2024-03-08T05:26:40;3.60;99.90
60701;DHT22;46541;49.894;10.886;2024-03-08T05:29:07;3.60;99.90
60701;DHT22;46541;49.894;10.886;2024-03-08T05:31:49;3.60;99.90
60701;DHT22;46541;49.894;10.886;2024-03-08T05:34:16;3.60;99.90
60701;DHT22;46541;49.894;10.886;2024-03-08T05:36:43;3.60;99.90
60701;DHT22;46541;49.894;10.886;2024-03-08T05:39:13;3.60;99.90
60701;DHT22;46541;49.894;10.886;2024-03-08T05:41:40;3.50;99.90
60701;DHT22;46541;49.894;10.886;2024-03-08T05:44:08;3.50;99.90
60701;DHT22;46541;49.894;10.886;2024-03-08T05:46:35;3.50;99.90
60701;DHT22;46541;49.894;10.886;2024-03-08T05:49:05;3.50;99.90
60701;DHT22;46541;49.894;10.886;2024-03-08T05:51:33;3.50;99.90
60701;DHT22;46541;49.894;10.886;2024-03-08T05:54:04;3.50;99.90
60701;DHT22;46541;49.894;10.886;2024-03-08T05:56:32;3.50;99.90
60701;DHT22;46541;49.894;10.886;2024-03-08T05:58:59;3.50;99.90
60701;DHT22;46541;49.894;10.886;2024-03-08T06:01:30;3.50;99.90
60701;DHT22;46541;49.894;10.886;2024-03-08T06:04:03;3.50;99.90
60701;DHT22;46541;49.894;10.886;2024-03-08T06:06:30;3.50;99.90
60701;DHT22;46541;49.894;10.886;2024-03-08T06:08:57;3.50;99.90
60701;DHT22;46541;49.894;10.886;2024-03-08T06:11:25;3.50;99.90
60701;DHT22;46541;49.894;10.886;2024-03-08T06:13:55;3.50;99.90
60701;DHT22;46541;49.894;10.886;2024-03-08T06:16:26;3.50;99.90
60701;DHT22;46541;49.894;10.886;2024-03-08T06:18:58;3.50;99.90
60701;DHT22;46541;49.894;10.886;2024-03-08T06:21:25;3.60;99.90
60701;DHT22;46541;49.894;10.886;2024-03-08T06:23:53;3.60;99.90
60701;DHT22;46541;49.894;10.886;2024-03-08T06:26:27;3.60;99.90
60701;DHT22;46541;49.894;10.886;2024-03-08T06:28:58;3.60;99.90
60701;DHT22;46541;49.894;10.886;2024-03-08T06:31:25;3.60;99.90
60701;DHT22;46541;49.894;10.886;2024-03-08T06:33:52;3.60;99.90
60701;DHT22;46541;49.894;10.886;2024-03-08T06:36:22;3.60;99.90
60701;DHT22;46541;49.894;10.886;2024-03-08T06:38:49;3.60;99.90
60701;DHT22;46541;49.894;10.886;2024-03-08T06:41:16;3.70;99.90
60701;DHT22;46541;49.894;10.886;2024-03-08T06:46:10;3.70;99.90
60701;DHT22;46541;49.894;10.886;2024-03-08T06:48:39;3.70;99.90
60701;DHT22;46541;49.894;10.886;2024-03-08T06:51:07;3.70;99.90
60701;DHT22;46541;49.894;10.886;2024-03-08T06:53:34;3.70;99.90
60701;DHT22;46541;49.894;10.886;2024-03-08T06:56:02;3.70;99.90
60701;DHT22;46541;49.894;10.886;2024-03-08T06:58:29;3.80;99.90
60701;DHT22;46541;49.894;10.886;2024-03-08T07:00:56;3.80;99.90
60701;DHT22;46541;49.894;10.886;2024-03-08T07:03:27;3.80;99.90
60701;DHT22;46541;49.894;10.886;2024-03-08T07:05:56;3.90;99.90
60701;DHT22;46541;49.894;10.886;2024-03-08T07:08:28;3.90;99.90
60701;DHT22;46541;49.894;10.886;2024-03-08T07:10:55;4.00;99.90
60701;DHT22;46541;49.894;10.886;2024-03-08T07:13:22;4.00;99.90
60701;DHT22;46541;49.894;10.886;2024-03-08T07:15:49;4.10;99.90
60701;DHT22;46541;49.894;10.886;2024-03-08T07:18:15;4.20;99.90
60701;DHT22;46541;49.894;10.886;2024-03-08T07:20:42;4.20;99.90
60701;DHT22;46541;49.894;10.886;2024-03-08T07:23:10;4.30;99.90
60701;DHT22;46541;49.894;10.886;2024-03-08T07:25:37;4.30;99.90
60701;DHT22;46541;49.894;10.886;2024-03-08T07:28:05;4.40;99.90
60701;DHT22;46541;49.894;10.886;2024-03-08T07:30:35;4.50;99.90
60701;DHT22;46541;49.894;10.886;2024-03-08T07:33:11;4.60;99.90
60701;DHT22;46541;49.894;10.886;2024-03-08T07:35:39;4.60;99.90
60701;DHT22;46541;49.894;10.886;2024-03-08T07:38:07;4.70;99.90
60701;DHT22;46541;49.894;10.886;2024-03-08T07:40:37;4.80;99.90
60701;DHT22;46541;49.894;10.886;2024-03-08T07:43:07;4.80;99.90
60701;DHT22;46541;49.894;10.886;2024-03-08T07:45:34;4.90;99.90
60701;DHT22;46541;49.894;10.886;2024-03-08T07:48:03;5.00;99.90
60701;DHT22;46541;49.894;10.886;2024-03-08T07:50:30;5.10;99.90
60701;DHT22;46541;49.894;10.886;2024-03-08T07:52:57;5.20;99.90
60701;DHT22;46541;49.894;10.886;2024-03-08T07:55:24;5.20;99.90
60701;DHT22;46541;49.894;10.886;2024-03-08T07:57:51;5.20;99.90
60701;DHT22;46541;49.894;10.886;2024-03-08T08:00:18;5.30;99.90
60701;DHT22;46541;49.894;10.886;2024-03-08T08:02:45;5.50;99.90
60701;DHT22;46541;49.894;10.886;2024-03-08T08:05:12;5.50;99.90
60701;DHT22;46541;49.894;10.886;2024-03-08T08:07:40;5.60;99.90
60701;DHT22;46541;49.894;10.886;2024-03-08T08:10:10;5.70;99.90
60701;DHT22;46541;49.894;10.886;2024-03-08T08:12:45;5.80;99.90
60701;DHT22;46541;49.894;10.886;2024-03-08T08:15:12;5.80;99.90
60701;DHT22;46541;49.894;10.886;2024-03-08T08:17:39;5.80;99.90
60701;DHT22;46541;49.894;10.886;2024-03-08T08:20:09;5.90;99.90
60701;DHT22;46541;49.894;10.886;2024-03-08T08:22:35;5.90;99.90
60701;DHT22;46541;49.894;10.886;2024-03-08T08:25:02;6.00;99.90
60701;DHT22;46541;49.894;10.886;2024-03-08T08:27:29;5.90;99.90
60701;DHT22;46541;49.894;10.886;2024-03-08T08:29:56;5.90;99.90
60701;DHT22;46541;49.894;10.886;2024-03-08T08:32:23;6.00;99.90
60701;DHT22;46541;49.894;10.886;2024-03-08T08:34:49;6.00;99.90
60701;DHT22;46541;49.894;10.886;2024-03-08T08:37:17;6.10;99.90
60701;DHT22;46541;49.894;10.886;2024-03-08T08:39:46;6.20;99.90
60701;DHT22;46541;49.894;10.886;2024-03-08T08:42:13;6.30;99.90
60701;DHT22;46541;49.894;10.886;2024-03-08T08:44:40;6.30;99.90
60701;DHT22;46541;49.894;10.886;2024-03-08T08:47:07;6.40;99.90
60701;DHT22;46541;49.894;10.886;2024-03-08T08:49:41;6.60;99.90
60701;DHT22;46541;49.894;10.886;2024-03-08T08:52:09;6.70;99.90
60701;DHT22;46541;49.894;10.886;2024-03-08T08:54:43;6.80;99.90
60701;DHT22;46541;49.894;10.886;2024-03-08T08:57:15;6.90;99.90
60701;DHT22;46541;49.894;10.886;2024-03-08T08:59:41;7.00;99.90
60701;DHT22;46541;49.894;10.886;2024-03-08T09:02:08;7.20;99.90
60701;DHT22;46541;49.894;10.886;2024-03-08T09:04:38;7.30;99.90
60701;DHT22;46541;49.894;10.886;2024-03-08T09:07:05;7.40;99.90
60701;DHT22;46541;49.894;10.886;2024-03-08T09:09:33;7.60;99.90
60701;DHT22;46541;49.894;10.886;2024-03-08T09:11:59;7.70;99.90
60701;DHT22;46541;49.894;10.886;2024-03-08T09:14:26;7.50;99.90
60701;DHT22;46541;49.894;10.886;2024-03-08T09:16:53;7.70;99.90
60701;DHT22;46541;49.894;10.886;2024-03-08T09:19:20;7.70;99.90
60701;DHT22;46541;49.894;10.886;2024-03-08T09:21:49;7.80;99.90
60701;DHT22;46541;49.894;10.886;2024-03-08T09:24:17;7.80;99.90
60701;DHT22;46541;49.894;10.886;2024-03-08T09:26:44;7.80;99.90
60701;DHT22;46541;49.894;10.886;2024-03-08T09:29:11;7.90;99.90
60701;DHT22;46541;49.894;10.886;2024-03-08T09:31:38;8.10;99.90
60701;DHT22;46541;49.894;10.886;2024-03-08T09:34:05;8.10;99.90
60701;DHT22;46541;49.894;10.886;2024-03-08T09:36:35;8.30;99.90
60701;DHT22;46541;49.894;10.886;2024-03-08T09:39:03;8.50;99.90
60701;DHT22;46541;49.894;10.886;2024-03-08T09:41:30;8.50;99.90
60701;DHT22;46541;49.894;10.886;2024-03-08T09:43:57;8.60;99.90
60701;DHT22;46541;49.894;10.886;2024-03-08T09:46:26;8.70;99.90
60701;DHT22;46541;49.894;10.886;2024-03-08T09:48:54;8.90;99.90
60701;DHT22;46541;49.894;10.886;2024-03-08T09:51:28;8.80;99.90
60701;DHT22;46541;49.894;10.886;2024-03-08T09:53:56;9.10;99.90
60701;DHT22;46541;49.894;10.886;2024-03-08T09:56:25;9.20;99.90
60701;DHT22;46541;49.894;10.886;2024-03-08T09:58:54;9.20;99.90
60701;DHT22;46541;49.894;10.886;2024-03-08T10:01:40;9.80;99.30
60701;DHT22;46541;49.894;10.886;2024-03-08T10:04:08;10.60;98.10
60701;DHT22;46541;49.894;10.886;2024-03-08T10:06:37;10.60;97.60
60701;DHT22;46541;49.894;10.886;2024-03-08T10:09:04;11.20;96.80
60701;DHT22;46541;49.894;10.886;2024-03-08T10:11:32;11.60;95.30
60701;DHT22;46541;49.894;10.886;2024-03-08T10:13:59;11.70;94.50
60701;DHT22;46541;49.894;10.886;2024-03-08T10:16:30;12.10;93.80
60701;DHT22;46541;49.894;10.886;2024-03-08T10:18:57;12.30;93.20
60701;DHT22;46541;49.894;10.886;2024-03-08T10:21:23;12.60;91.80
60701;DHT22;46541;49.894;10.886;2024-03-08T10:23:51;13.10;91.40
60701;DHT22;46541;49.894;10.886;2024-03-08T10:26:18;13.60;90.30
60701;DHT22;46541;49.894;10.886;2024-03-08T10:28:49;14.00;88.30
60701;DHT22;46541;49.894;10.886;2024-03-08T10:31:16;14.20;86.60
60701;DHT22;46541;49.894;10.886;2024-03-08T10:33:46;13.80;86.10
60701;DHT22;46541;49.894;10.886;2024-03-08T10:36:14;13.10;87.20
60701;DHT22;46541;49.894;10.886;2024-03-08T10:38:42;12.80;88.10
60701;DHT22;46541;49.894;10.886;2024-03-08T10:41:13;12.40;88.50
60701;DHT22;46541;49.894;10.886;2024-03-08T10:46:57;11.70;90.20
60701;DHT22;46541;49.894;10.886;2024-03-08T10:49:31;11.70;91.00
60701;DHT22;46541;49.894;10.886;2024-03-08T10:52:05;11.80;90.80
60701;DHT22;46541;49.894;10.886;2024-03-08T10:54:37;11.90;90.70
60701;DHT22;46541;49.894;10.886;2024-03-08T10:57:12;11.80;90.40
60701;DHT22;46541;49.894;10.886;2024-03-08T10:59:39;11.70;90.50
60701;DHT22;46541;49.894;10.886;2024-03-08T11:02:06;11.70;90.70
60701;DHT22;46541;49.894;10.886;2024-03-08T11:04:33;11.80;90.40
60701;DHT22;46541;49.894;10.886;2024-03-08T11:07:03;11.90;90.30
60701;DHT22;46541;49.894;10.886;2024-03-08T11:09:37;11.80;89.40
60701;DHT22;46541;49.894;10.886;2024-03-08T11:14:48;12.20;90.30
60701;DHT22;46541;49.894;10.886;2024-03-08T11:19:55;12.20;88.80
60701;DHT22;46541;49.894;10.886;2024-03-08T11:22:29;12.30;89.60
60701;DHT22;46541;49.894;10.886;2024-03-08T11:25:02;12.30;86.90
60701;DHT22;46541;49.894;10.886;2024-03-08T11:27:30;12.40;87.20
60701;DHT22;46541;49.894;10.886;2024-03-08T11:30:02;12.50;86.30
60701;DHT22;46541;49.894;10.886;2024-03-08T11:32:45;12.50;86.60
60701;DHT22;46541;49.894;10.886;2024-03-08T11:35:22;12.70;86.60
60701;DHT22;46541;49.894;10.886;2024-03-08T11:37:51;12.70;86.80
60701;DHT22;46541;49.894;10.886;2024-03-08T11:40:19;12.80;86.40
60701;DHT22;46541;49.894;10.886;2024-03-08T11:42:47;12.80;85.60
60701;DHT22;46541;49.894;10.886;2024-03-08T11:45:16;12.70;84.80
60701;DHT22;46541;49.894;10.886;2024-03-08T11:47:44;12.50;85.50
60701;DHT22;46541;49.894;10.886;2024-03-08T11:50:15;12.60;85.70
60701;DHT22;46541;49.894;10.886;2024-03-08T11:52:43;12.40;85.80
60701;DHT22;46541;49.894;10.886;2024-03-08T11:55:11;12.40;86.30
60701;DHT22;46541;49.894;10.886;2024-03-08T11:57:39;12.40;85.60
60701;DHT22;46541;49.894;10.886;2024-03-08T12:00:07;12.50;85.60
60701;DHT22;46541;49.894;10.886;2024-03-08T12:03:01;12.60;85.50
60701;DHT22;46541;49.894;10.886;2024-03-08T12:05:28;12.70;84.60
60701;DHT22;46541;49.894;10.886;2024-03-08T12:07:57;12.70;84.30
60701;DHT22;46541;49.894;10.886;2024-03-08T12:10:24;12.70;84.00
60701;DHT22;46541;49.894;10.886;2024-03-08T12:12:53;12.60;83.70
60701;DHT22;46541;49.894;10.886;2024-03-08T12:15:23;12.70;84.20
60701;DHT22;46541;49.894;10.886;2024-03-08T12:17:52;12.60;82.90
60701;DHT22;46541;49.894;10.886;2024-03-08T12:20:27;12.40;83.20
60701;DHT22;46541;49.894;10.886;2024-03-08T12:22:58;12.40;84.90
60701;DHT22;46541;49.894;10.886;2024-03-08T12:25:32;12.40;84.00
60701;DHT22;46541;49.894;10.886;2024-03-08T12:28:12;12.50;84.20
60701;DHT22;46541;49.894;10.886;2024-03-08T12:30:51;12.40;85.00
60701;DHT22;46541;49.894;10.886;2024-03-08T12:33:20;12.40;84.70
60701;DHT22;46541;49.894;10.886;2024-03-08T12:35:51;12.40;85.20
60701;DHT22;46541;49.894;10.886;2024-03-08T12:38:21;12.60;86.40
60701;DHT22;46541;49.894;10.886;2024-03-08T12:40:59;12.70;84.70
60701;DHT22;46541;49.894;10.886;2024-03-08T12:43:27;12.70;84.30
60701;DHT22;46541;49.894;10.886;2024-03-08T12:45:58;12.80;84.70
60701;DHT22;46541;49.894;10.886;2024-03-08T12:48:25;12.60;83.10
60701;DHT22;46541;49.894;10.886;2024-03-08T12:50:52;12.60;83.10
60701;DHT22;46541;49.894;10.886;2024-03-08T12:53:21;12.50;83.80
60701;DHT22;46541;49.894;10.886;2024-03-08T12:55:49;12.40;83.90
60701;DHT22;46541;49.894;10.886;2024-03-08T12:58:16;12.40;83.00
60701;DHT22;46541;49.894;10.886;2024-03-08T13:00:43;12.30;83.30
60701;DHT22;46541;49.894;10.886;2024-03-08T13:03:10;12.20;82.20
60701;DHT22;46541;49.894;10.886;2024-03-08T13:05:38;12.20;81.70
60701;DHT22;46541;49.894;10.886;2024-03-08T13:08:09;12.20;82.60
60701;DHT22;46541;49.894;10.886;2024-03-08T13:10:40;12.20;83.10
60701;DHT22;46541;49.894;10.886;2024-03-08T13:13:10;12.20;83.40
60701;DHT22;46541;49.894;10.886;2024-03-08T13:15:40;12.20;82.90
60701;DHT22;46541;49.894;10.886;2024-03-08T13:18:07;12.20;82.70
60701;DHT22;46541;49.894;10.886;2024-03-08T13:20:35;12.20;82.60
60701;DHT22;46541;49.894;10.886;2024-03-08T13:23:13;12.20;82.60
60701;DHT22;46541;49.894;10.886;2024-03-08T13:25:40;12.10;82.50
60701;DHT22;46541;49.894;10.886;2024-03-08T13:28:08;12.10;82.90
60701;DHT22;46541;49.894;10.886;2024-03-08T13:30:35;12.10;82.80
60701;DHT22;46541;49.894;10.886;2024-03-08T13:33:02;12.10;83.40
60701;DHT22;46541;49.894;10.886;2024-03-08T13:35:32;12.00;82.60
60701;DHT22;46541;49.894;10.886;2024-03-08T13:37:59;12.00;82.90
60701;DHT22;46541;49.894;10.886;2024-03-08T13:40:26;12.00;83.20
60701;DHT22;46541;49.894;10.886;2024-03-08T13:42:53;11.90;83.60
60701;DHT22;46541;49.894;10.886;2024-03-08T13:45:20;11.90;82.90
60701;DHT22;46541;49.894;10.886;2024-03-08T13:47:50;11.80;82.50
60701;DHT22;46541;49.894;10.886;2024-03-08T13:50:21;11.80;82.70
60701;DHT22;46541;49.894;10.886;2024-03-08T13:52:49;11.90;84.60
60701;DHT22;46541;49.894;10.886;2024-03-08T13:55:21;11.90;83.80
60701;DHT22;46541;49.894;10.886;2024-03-08T13:57:49;11.90;83.20
60701;DHT22;46541;49.894;10.886;2024-03-08T14:00:18;11.90;83.20
60701;DHT22;46541;49.894;10.886;2024-03-08T14:02:48;11.90;84.80
60701;DHT22;46541;49.894;10.886;2024-03-08T14:05:15;11.90;83.50
60701;DHT22;46541;49.894;10.886;2024-03-08T14:07:43;11.90;83.80
60701;DHT22;46541;49.894;10.886;2024-03-08T14:10:13;11.90;85.40
60701;DHT22;46541;49.894;10.886;2024-03-08T14:12:40;11.80;84.40
60701;DHT22;46541;49.894;10.886;2024-03-08T14:15:07;11.80;84.10
60701;DHT22;46541;49.894;10.886;2024-03-08T14:17:33;11.80;83.80
60701;DHT22;46541;49.894;10.886;2024-03-08T14:20:00;11.80;83.80
60701;DHT22;46541;49.894;10.886;2024-03-08T14:22:27;11.70;84.60
60701;DHT22;46541;49.894;10.886;2024-03-08T14:24:54;11.70;84.30
60701;DHT22;46541;49.894;10.886;2024-03-08T14:27:22;11.70;84.20
60701;DHT22;46541;49.894;10.886;2024-03-08T14:29:49;11.60;83.90
60701;DHT22;46541;49.894;10.886;2024-03-08T14:32:16;11.60;82.90
60701;DHT22;46541;49.894;10.886;2024-03-08T14:34:46;11.60;84.10
60701;DHT22;46541;49.894;10.886;2024-03-08T14:37:14;11.60;82.10
60701;DHT22;46541;49.894;10.886;2024-03-08T14:39:41;11.60;82.90
60701;DHT22;46541;49.894;10.886;2024-03-08T14:42:08;11.50;83.90
60701;DHT22;46541;49.894;10.886;2024-03-08T14:44:39;11.60;84.30
60701;DHT22;46541;49.894;10.886;2024-03-08T14:47:06;11.60;85.00
60701;DHT22;46541;49.894;10.886;2024-03-08T14:49:33;11.60;85.00
60701;DHT22;46541;49.894;10.886;2024-03-08T14:52:03;11.60;85.10
60701;DHT22;46541;49.894;10.886;2024-03-08T14:54:41;11.60;85.40
60701;DHT22;46541;49.894;10.886;2024-03-08T14:57:08;11.50;84.90
60701;DHT22;46541;49.894;10.886;2024-03-08T14:59:34;11.50;85.80
60701;DHT22;46541;49.894;10.886;2024-03-08T15:02:04;11.40;86.00
60701;DHT22;46541;49.894;10.886;2024-03-08T15:04:33;11.40;87.20
60701;DHT22;46541;49.894;10.886;2024-03-08T15:07:02;11.40;85.50
60701;DHT22;46541;49.894;10.886;2024-03-08T15:09:32;11.30;85.80
60701;DHT22;46541;49.894;10.886;2024-03-08T15:12:06;11.20;85.70
60701;DHT22;46541;49.894;10.886;2024-03-08T15:14:33;11.20;85.20
60701;DHT22;46541;49.894;10.886;2024-03-08T15:17:00;11.10;85.10
60701;DHT22;46541;49.894;10.886;2024-03-08T15:19:36;11.10;85.60
60701;DHT22;46541;49.894;10.886;2024-03-08T15:22:04;11.10;85.60
60701;DHT22;46541;49.894;10.886;2024-03-08T15:24:31;11.00;85.80
60701;DHT22;46541;49.894;10.886;2024-03-08T15:26:58;11.00;86.20
60701;DHT22;46541;49.894;10.886;2024-03-08T15:29:26;11.00;86.00
60701;DHT22;46541;49.894;10.886;2024-03-08T15:31:53;11.00;86.40
60701;DHT22;46541;49.894;10.886;2024-03-08T15:34:20;11.00;87.10
60701;DHT22;46541;49.894;10.886;2024-03-08T15:36:52;11.00;86.20
60701;DHT22;46541;49.894;10.886;2024-03-08T15:39:19;11.00;86.40
60701;DHT22;46541;49.894;10.886;2024-03-08T15:41:51;10.90;85.80
60701;DHT22;46541;49.894;10.886;2024-03-08T15:44:17;10.90;86.70